Strona główna
METAR-TAF:

METAR-TAF

Lotnisko :

Port lotniczy Belfast-City George Best

Belfast, Irlandia Północna

Szerokość geograficzna: 54-36N, Długość geograficzna: 005-53W, wysokość: 5 m

Aktualna obserwacja pogody

Raport powstał 16 minut temu, godzina 14:50 UTC
Wiatr 11 kt od wschodnio-południowy wschód, zmienny między wschodnio-północny wschód i południowy wschód
Temperatura 11°C
Wilgotność 76%
Ciśnienie 997 hPa
Widzialność 10 km lub więcej

METAR: EGAC 151450Z AUTO 12011KT 060V140 9999 FEW023/// SCT028/// BKN034/// 11/07 Q0997

czas: 16:06 (15:06 UTC)

Prognoza

Raport powstał 1 godzina i 8 minut temu, godzina 13:58 UTC
Prognoza ważna od 15 godzina 15 UTC do 15 godzina 17 UTC
Wiatr 10 kt od wschodnio-południowy wschód
Widzialność 10 km lub więcej
Przerywane chmury na wysokości 2000 ft
Prawdopodobieństwo 30% :
Przejściowo
od 15 godzina 15 UTC do 15 godzina 17 UTC
Widzialność: 8000 m
słaby deszcz

TAF: EGAC 151358Z 1515/1517 12010KT 9999 BKN020 PROB30 TEMPO 1515/1517 8000 -RA

Obserwacja i prognoza pogody dla ponad 4000 lotnisk (raport METAR i TAF).

Dostępne stacje oznaczono żółtymi i czerwonymi punktami na mapie.

Najedź kursorem aby zobaczyć nazwę stacji.

Kliknij aby zobaczyć obserwacje i prognozy pogody.

Aby zmienić mapę: kliknij na zielony przycisk z czarnym krzyżykiem, aby powiększyć; na zielony przycisk z myślnikiem, aby pomniejszyć; na zielone strzałki, aby przejść do map sąsiednich.


METAR-TAF: